Time;durP1;ratioP1;P1;durP2;ratioP2;P2;SDS_P1;SDS_P2;PMS_P1;PMS_P2;Temp;Humidity;BMP_temperature;BMP_pressure;BME280_temperature;BME280_humidity;BME280_pressure;Samples;Min_cycle;Max_cycle;Signal;HPM_P1;HPM_P2
2022/10/21 00:01:18;;;;;;;19.67;16.08;;;14.00;99.90;;;;;;5053599;28;20496;-75
2022/10/21 00:03:44;;;;;;;28.00;17.08;;;14.00;99.90;;;;;;5053674;28;20384;-75
2022/10/21 00:06:12;;;;;;;21.92;16.90;;;14.00;99.90;;;;;;5054546;28;20037;-75
2022/10/21 00:08:38;;;;;;;24.33;17.23;;;14.00;99.90;;;;;;5054158;28;20050;-75
2022/10/21 00:11:06;;;;;;;26.13;17.73;;;14.00;99.90;;;;;;5053667;28;20029;-74
2022/10/21 00:13:34;;;;;;;24.05;16.98;;;14.00;99.90;;;;;;5054370;28;20081;-75
2022/10/21 00:16:01;;;;;;;20.83;16.98;;;14.00;99.90;;;;;;5054621;28;20035;-75
2022/10/21 00:18:27;;;;;;;24.52;16.83;;;14.00;99.90;;;;;;5053127;28;20469;-74
2022/10/21 00:20:53;;;;;;;33.58;17.60;;;14.00;99.90;;;;;;5052848;28;20473;-74
2022/10/21 00:23:19;;;;;;;25.55;17.08;;;14.00;99.90;;;;;;5054284;28;20054;-74
2022/10/21 00:25:44;;;;;;;26.88;17.55;;;14.10;99.90;;;;;;5052841;28;20060;-75
2022/10/21 00:28:10;;;;;;;27.38;17.08;;;14.00;99.90;;;;;;5054200;28;20071;-75
2022/10/21 00:30:35;;;;;;;24.77;17.15;;;13.90;99.90;;;;;;5054193;28;20025;-75
2022/10/21 00:33:01;;;;;;;25.45;17.30;;;14.00;99.90;;;;;;5053658;28;20116;-76
2022/10/21 00:35:26;;;;;;;29.15;18.40;;;13.90;99.90;;;;;;5053888;28;20488;-76
2022/10/21 00:37:52;;;;;;;22.58;16.42;;;14.00;99.90;;;;;;5054274;28;20027;-75
2022/10/21 00:40:17;;;;;;;28.63;17.75;;;14.00;99.90;;;;;;5053370;28;20044;-75
2022/10/21 00:42:43;;;;;;;28.58;17.45;;;14.00;99.90;;;;;;5053858;28;20045;-75
2022/10/21 00:45:20;;;;;;;25.35;17.05;;;14.00;99.90;;;;;;5053735;28;20452;-75
2022/10/21 00:47:50;;;;;;;26.05;18.20;;;14.00;99.90;;;;;;5053677;28;20431;-75
2022/10/21 00:50:31;;;;;;;24.42;16.30;;;14.00;99.90;;;;;;5054215;28;20025;-75
2022/10/21 00:52:58;;;;;;;29.20;18.33;;;14.00;99.90;;;;;;5053435;28;20477;-75
2022/10/21 00:55:26;;;;;;;28.02;17.73;;;14.00;99.90;;;;;;5053981;28;20029;-75
2022/10/21 00:57:53;;;;;;;22.20;17.08;;;14.00;99.90;;;;;;5056152;28;20029;-75
2022/10/21 01:00:19;;;;;;;25.05;16.85;;;13.90;99.90;;;;;;5056476;28;20020;-75
2022/10/21 01:02:45;;;;;;;28.98;17.75;;;13.80;99.90;;;;;;5056674;28;20048;-75
2022/10/21 01:05:11;;;;;;;21.60;16.73;;;13.80;99.90;;;;;;5061581;28;20515;-75
2022/10/21 01:07:37;;;;;;;26.40;17.63;;;13.70;99.90;;;;;;5067357;28;20024;-74
2022/10/21 01:10:03;;;;;;;20.05;17.42;;;13.70;99.90;;;;;;5067641;28;20025;-75
2022/10/21 01:12:37;;;;;;;28.55;16.98;;;13.70;99.90;;;;;;5057342;28;20021;-74
2022/10/21 01:15:14;;;;;;;25.77;16.92;;;13.70;99.90;;;;;;5054016;28;20124;-74
2022/10/21 01:17:54;;;;;;;23.02;15.32;;;13.70;99.90;;;;;;5052798;28;20489;-74
2022/10/21 01:20:30;;;;;;;23.60;17.08;;;13.70;99.90;;;;;;5052933;28;20114;-74
2022/10/21 01:23:11;;;;;;;21.08;15.23;;;13.60;99.90;;;;;;5053079;28;20087;-76
2022/10/21 01:25:55;;;;;;;23.10;16.98;;;13.60;99.90;;;;;;5052890;28;20108;-76
2022/10/21 01:28:30;;;;;;;20.83;14.82;;;13.60;99.90;;;;;;5052576;28;20021;-76
2022/10/21 01:31:12;;;;;;;25.02;16.55;;;13.60;99.90;;;;;;5053057;28;20025;-76
2022/10/21 01:33:49;;;;;;;33.75;16.77;;;13.50;99.90;;;;;;5039839;28;20029;-76
2022/10/21 01:36:37;;;;;;;21.15;16.15;;;13.50;99.90;;;;;;5052092;28;20070;-76
2022/10/21 01:39:31;;;;;;;26.70;16.52;;;13.50;99.90;;;;;;5053485;28;20047;-75
2022/10/21 01:42:04;;;;;;;21.08;15.07;;;13.60;99.90;;;;;;5056133;28;20037;-75
2022/10/21 01:44:49;;;;;;;19.38;15.18;;;13.40;99.90;;;;;;5053020;28;20085;-76
2022/10/21 01:47:38;;;;;;;19.23;15.38;;;13.40;99.90;;;;;;5040423;28;20025;-76
2022/10/21 01:50:13;;;;;;;23.23;14.48;;;13.40;99.90;;;;;;5052099;28;20021;-76
2022/10/21 01:52:41;;;;;;;16.13;12.82;;;13.40;99.90;;;;;;5051872;28;20582;-74
2022/10/21 01:55:11;;;;;;;18.02;14.20;;;13.40;99.90;;;;;;5053355;28;20029;-74
2022/10/21 01:57:42;;;;;;;17.73;13.40;;;13.40;99.90;;;;;;5052649;28;20028;-75
2022/10/21 02:00:08;;;;;;;22.98;12.88;;;13.40;99.90;;;;;;5052352;28;20032;-74
2022/10/21 02:02:39;;;;;;;16.15;12.38;;;13.40;99.90;;;;;;5051438;28;20049;-74
2022/10/21 02:05:14;;;;;;;14.40;12.57;;;13.40;99.90;;;;;;5052507;28;20021;-76
2022/10/21 02:07:40;;;;;;;15.18;11.45;;;13.40;99.90;;;;;;5039498;28;20074;-76
2022/10/21 02:10:06;;;;;;;15.43;11.27;;;13.30;99.90;;;;;;5051723;28;20111;-75
2022/10/21 02:12:34;;;;;;;19.88;10.95;;;13.40;99.90;;;;;;5052248;28;20453;-75
2022/10/21 02:15:03;;;;;;;13.27;11.05;;;13.30;99.90;;;;;;5052656;28;20021;-74
2022/10/21 02:17:29;;;;;;;12.77;10.30;;;13.30;99.90;;;;;;5051068;28;20033;-75
2022/10/21 02:19:58;;;;;;;14.75;8.93;;;13.30;99.90;;;;;;5052113;28;20045;-74
2022/10/21 02:22:24;;;;;;;18.35;10.38;;;13.30;99.90;;;;;;5051744;28;20044;-74
2022/10/21 02:24:55;;;;;;;14.73;9.27;;;13.30;99.90;;;;;;5051379;28;20018;-75
2022/10/21 02:27:21;;;;;;;12.93;9.63;;;13.30;99.90;;;;;;5052132;28;20393;-74
2022/10/21 02:29:50;;;;;;;12.32;9.40;;;13.30;99.90;;;;;;5051627;28;20017;-74
2022/10/21 02:32:29;;;;;;;13.00;9.48;;;13.30;99.90;;;;;;5051317;28;20536;-74
2022/10/21 02:35:13;;;;;;;15.48;9.95;;;13.20;99.90;;;;;;5051786;28;20063;-74
2022/10/21 02:37:44;;;;;;;19.25;10.13;;;13.30;99.90;;;;;;5051398;28;20104;-75
2022/10/21 02:40:25;;;;;;;14.70;10.65;;;13.20;99.90;;;;;;5051972;28;20025;-74
2022/10/21 02:42:55;;;;;;;16.85;10.75;;;13.20;99.90;;;;;;5051929;28;20039;-74
2022/10/21 02:45:21;;;;;;;;;;;13.20;99.90;;;;;;5052648;28;20405;-74
2022/10/21 02:47:48;;;;;;;15.82;11.30;;;13.20;99.90;;;;;;5052081;28;19939;-74
2022/10/21 02:50:14;;;;;;;13.52;11.85;;;13.20;99.90;;;;;;5052057;28;20067;-75
2022/10/21 02:52:40;;;;;;;16.17;12.68;;;13.10;99.90;;;;;;5051217;28;20054;-75
2022/10/21 02:55:06;;;;;;;26.90;12.20;;;13.20;99.90;;;;;;5051642;28;20495;-74
2022/10/21 02:57:32;;;;;;;17.42;12.68;;;13.10;99.90;;;;;;5051529;28;20120;-74
2022/10/21 02:59:57;;;;;;;17.10;13.27;;;13.10;99.90;;;;;;5051270;28;20127;-74
2022/10/21 03:02:23;;;;;;;19.90;13.52;;;13.10;99.90;;;;;;5051698;28;20024;-74
2022/10/21 03:04:48;;;;;;;21.85;14.10;;;13.10;99.90;;;;;;5054577;28;20051;-74
2022/10/21 03:07:14;;;;;;;21.13;14.32;;;13.10;99.90;;;;;;5054944;28;20107;-75
2022/10/21 03:09:40;;;;;;;22.40;14.52;;;13.10;99.90;;;;;;5055290;28;20021;-75
2022/10/21 03:12:06;;;;;;;24.58;15.18;;;13.10;99.90;;;;;;5055485;28;20021;-74
2022/10/21 03:14:32;;;;;;;19.90;14.35;;;13.10;99.90;;;;;;5054497;28;20535;-74
2022/10/21 03:16:57;;;;;;;17.23;13.55;;;13.10;99.90;;;;;;5053787;28;20020;-74
2022/10/21 03:19:23;;;;;;;21.63;14.40;;;13.10;99.90;;;;;;5050418;28;20040;-76
2022/10/21 03:21:49;;;;;;;20.63;13.70;;;13.10;99.90;;;;;;5049980;28;20147;-73
2022/10/21 03:24:14;;;;;;;25.40;14.98;;;13.10;99.90;;;;;;5045987;28;20013;-75
2022/10/21 03:26:40;;;;;;;18.67;12.88;;;13.10;99.90;;;;;;5049496;28;20131;-74
2022/10/21 03:29:05;;;;;;;20.45;13.82;;;13.00;99.90;;;;;;5047735;28;20083;-73
2022/10/21 03:31:31;;;;;;;21.00;13.50;;;13.00;99.90;;;;;;5052339;28;20025;-73
2022/10/21 03:33:56;;;;;;;18.55;12.40;;;13.00;99.90;;;;;;5046348;28;20033;-74
2022/10/21 03:36:22;;;;;;;17.50;13.13;;;13.00;99.90;;;;;;5044558;28;20454;-74
2022/10/21 03:38:47;;;;;;;21.20;13.88;;;13.00;99.90;;;;;;5048291;28;20029;-74
2022/10/21 03:41:13;;;;;;;19.08;12.50;;;12.90;99.90;;;;;;5041913;28;20037;-75
2022/10/21 03:43:38;;;;;;;24.15;13.23;;;12.90;99.90;;;;;;5054000;28;20025;-75
2022/10/21 03:46:04;;;;;;;19.40;11.82;;;12.90;99.90;;;;;;5045633;28;20112;-75
2022/10/21 03:48:30;;;;;;;18.60;13.10;;;12.80;99.90;;;;;;5045374;28;20520;-74
2022/10/21 03:50:55;;;;;;;18.67;12.68;;;12.80;99.90;;;;;;5051059;28;20114;-75
2022/10/21 03:53:22;;;;;;;11.75;10.45;;;12.80;99.90;;;;;;5053260;28;20059;-75
2022/10/21 03:55:49;;;;;;;16.20;11.57;;;12.80;99.90;;;;;;5052523;28;20522;-74
2022/10/21 03:58:14;;;;;;;13.57;10.95;;;12.70;99.90;;;;;;5051844;28;20029;-76
2022/10/21 04:00:40;;;;;;;17.67;11.65;;;12.70;99.90;;;;;;5052085;28;20036;-74
2022/10/21 04:03:05;;;;;;;15.63;11.65;;;12.70;99.90;;;;;;5053184;28;20033;-74
2022/10/21 04:05:32;;;;;;;22.60;11.30;;;12.60;99.90;;;;;;5043475;28;20529;-75
2022/10/21 04:07:57;;;;;;;18.92;11.63;;;12.70;99.90;;;;;;5035570;28;20052;-73
2022/10/21 04:10:23;;;;;;;14.98;11.27;;;12.70;99.90;;;;;;5045936;28;20025;-74
2022/10/21 04:12:48;;;;;;;20.92;11.88;;;12.60;99.90;;;;;;5054390;28;20017;-73
2022/10/21 04:15:14;;;;;;;17.45;11.10;;;12.70;99.90;;;;;;5053538;28;20071;-74
2022/10/21 04:17:40;;;;;;;15.90;11.07;;;12.60;99.90;;;;;;5046386;28;20034;-74
2022/10/21 04:20:07;;;;;;;18.73;11.40;;;12.70;99.90;;;;;;5052452;28;20131;-74
2022/10/21 04:22:32;;;;;;;16.88;10.77;;;12.60;99.90;;;;;;5046029;28;20029;-74
2022/10/21 04:24:58;;;;;;;21.23;11.25;;;12.60;99.90;;;;;;5045016;28;20074;-75
2022/10/21 04:27:23;;;;;;;13.25;10.65;;;12.60;99.90;;;;;;5047411;28;20022;-75
2022/10/21 04:29:49;;;;;;;16.10;10.43;;;12.60;99.90;;;;;;5043136;28;20017;-74
2022/10/21 04:32:14;;;;;;;12.75;10.75;;;12.50;99.90;;;;;;5042717;28;20033;-74
2022/10/21 04:34:40;;;;;;;18.65;12.45;;;12.50;99.90;;;;;;5041514;28;20017;-74
2022/10/21 04:37:05;;;;;;;14.30;10.45;;;12.50;99.90;;;;;;5045405;28;20380;-74
2022/10/21 04:39:31;;;;;;;20.15;11.35;;;12.40;99.90;;;;;;5040952;28;20068;-74
2022/10/21 04:41:57;;;;;;;19.70;12.43;;;12.40;99.90;;;;;;5046805;28;20037;-75
2022/10/21 04:44:23;;;;;;;23.10;11.55;;;12.40;99.90;;;;;;5041631;28;20200;-74
2022/10/21 04:46:49;;;;;;;22.92;13.18;;;12.50;99.90;;;;;;5045337;28;20029;-74
2022/10/21 04:49:14;;;;;;;18.65;12.18;;;12.40;99.90;;;;;;5045569;28;20021;-74
2022/10/21 04:51:40;;;;;;;21.05;12.95;;;12.40;99.90;;;;;;5045741;28;20026;-74
2022/10/21 04:54:05;;;;;;;24.83;13.63;;;12.40;99.90;;;;;;5050605;28;20044;-73
2022/10/21 04:56:31;;;;;;;26.27;14.07;;;12.40;99.90;;;;;;5046487;28;20032;-73
2022/10/21 04:58:56;;;;;;;21.67;14.27;;;12.40;99.90;;;;;;5054962;28;20090;-74
2022/10/21 05:01:22;;;;;;;16.85;13.75;;;12.40;99.90;;;;;;5054568;28;20029;-74
2022/10/21 05:03:47;;;;;;;19.20;14.25;;;12.40;99.90;;;;;;5053974;28;20025;-75
2022/10/21 05:06:13;;;;;;;31.13;15.70;;;12.40;99.90;;;;;;5054589;28;20056;-74
2022/10/21 05:08:38;;;;;;;26.73;14.25;;;12.40;99.90;;;;;;5043059;28;20045;-74
2022/10/21 05:11:04;;;;;;;19.42;14.20;;;12.40;99.90;;;;;;5053235;28;20028;-74
2022/10/21 05:13:30;;;;;;;21.58;13.85;;;12.40;99.90;;;;;;5052421;28;20021;-73
2022/10/21 05:16:00;;;;;;;22.63;14.02;;;12.30;99.90;;;;;;5053393;28;20043;-74
2022/10/21 05:18:26;;;;;;;20.88;14.52;;;12.30;99.90;;;;;;5052996;28;20380;-73
2022/10/21 05:20:53;;;;;;;21.33;14.68;;;12.40;99.90;;;;;;5052580;28;20049;-74
2022/10/21 05:23:20;;;;;;;26.45;15.63;;;12.40;99.90;;;;;;5053099;28;20486;-74
2022/10/21 05:25:47;;;;;;;23.35;14.65;;;12.40;99.90;;;;;;5053003;28;20025;-74
2022/10/21 05:28:12;;;;;;;21.45;14.45;;;12.40;99.90;;;;;;5051512;28;20098;-74
2022/10/21 05:30:38;;;;;;;19.15;13.82;;;12.40;99.90;;;;;;5052486;28;20460;-74
2022/10/21 05:33:04;;;;;;;25.58;14.68;;;12.40;99.90;;;;;;5052987;28;20033;-75
2022/10/21 05:35:30;;;;;;;25.40;13.68;;;12.30;99.90;;;;;;5052314;28;20028;-75
2022/10/21 05:37:56;;;;;;;23.38;14.10;;;12.30;99.90;;;;;;5052828;28;20115;-75
2022/10/21 05:40:21;;;;;;;26.13;15.95;;;12.30;99.90;;;;;;5052228;28;20056;-73
2022/10/21 05:42:47;;;;;;;24.00;15.52;;;12.30;99.90;;;;;;5052622;28;20040;-73
2022/10/21 05:45:13;;;;;;;20.02;16.15;;;12.30;99.90;;;;;;5052658;28;20382;-72
2022/10/21 05:47:41;;;;;;;25.52;16.25;;;12.30;99.90;;;;;;5051821;28;20076;-74
2022/10/21 05:50:09;;;;;;;20.65;14.65;;;12.30;99.90;;;;;;5052318;28;20531;-75
2022/10/21 05:52:38;;;;;;;19.38;13.93;;;12.20;99.90;;;;;;5052868;28;20033;-74
2022/10/21 05:55:04;;;;;;;19.35;14.40;;;12.20;99.90;;;;;;5051868;28;20025;-74
2022/10/21 05:57:35;;;;;;;19.42;13.88;;;12.20;99.90;;;;;;5052428;28;20108;-74
2022/10/21 06:00:01;;;;;;;21.67;13.70;;;12.20;99.90;;;;;;5052093;28;20017;-74
2022/10/21 06:02:26;;;;;;;28.67;14.32;;;12.20;99.90;;;;;;5051550;28;20037;-73
2022/10/21 06:04:52;;;;;;;24.13;14.27;;;12.20;99.90;;;;;;5052312;28;20107;-73
2022/10/21 06:07:17;;;;;;;21.38;14.57;;;12.20;99.90;;;;;;5052145;28;20021;-74
2022/10/21 06:09:43;;;;;;;24.45;15.27;;;12.20;99.90;;;;;;5050971;28;20430;-73
2022/10/21 06:12:09;;;;;;;18.92;14.20;;;12.20;99.90;;;;;;5052723;28;20039;-73
2022/10/21 06:14:35;;;;;;;21.23;14.60;;;12.20;99.90;;;;;;5052183;28;20525;-74
2022/10/21 06:17:03;;;;;;;26.30;14.60;;;12.20;99.90;;;;;;5051808;28;20116;-74
2022/10/21 06:19:29;;;;;;;17.85;13.73;;;12.20;99.90;;;;;;5051644;28;20044;-74
2022/10/21 06:21:56;;;;;;;20.52;14.02;;;12.20;99.90;;;;;;5052199;28;20128;-74
2022/10/21 06:24:23;;;;;;;22.52;14.60;;;12.20;99.90;;;;;;5051616;28;20025;-74
2022/10/21 06:26:49;;;;;;;25.88;13.35;;;12.20;99.90;;;;;;5052212;28;20033;-74
2022/10/21 06:29:16;;;;;;;23.02;13.68;;;12.20;99.90;;;;;;5053633;28;20029;-74
2022/10/21 06:31:42;;;;;;;19.33;14.00;;;12.20;99.90;;;;;;5051136;28;20499;-74
2022/10/21 06:34:08;;;;;;;18.38;13.27;;;12.20;99.90;;;;;;5051980;28;20026;-74
2022/10/21 06:36:33;;;;;;;20.92;14.27;;;12.20;99.90;;;;;;5051527;28;20021;-74
2022/10/21 06:38:59;;;;;;;19.83;13.10;;;12.20;99.90;;;;;;5054095;28;20417;-74
2022/10/21 06:41:24;;;;;;;21.13;12.73;;;12.20;99.90;;;;;;5056099;28;20278;-74
2022/10/21 06:43:50;;;;;;;18.23;13.43;;;12.30;99.90;;;;;;5048645;28;20061;-74
2022/10/21 06:46:18;;;;;;;28.25;12.63;;;12.30;99.90;;;;;;5049265;28;20025;-74
2022/10/21 06:48:44;;;;;;;18.10;13.10;;;12.30;99.90;;;;;;5050171;28;20466;-73
2022/10/21 06:51:17;;;;;;;22.17;12.00;;;12.30;99.90;;;;;;5046757;28;20035;-74
2022/10/21 06:53:43;;;;;;;22.77;12.85;;;12.30;99.90;;;;;;5055378;28;20480;-74
2022/10/21 06:56:13;;;;;;;16.17;12.55;;;12.30;99.90;;;;;;5055958;28;20167;-74
2022/10/21 06:58:42;;;;;;;21.65;12.52;;;12.30;99.90;;;;;;5056133;28;20093;-74
2022/10/21 07:01:09;;;;;;;14.65;11.63;;;12.30;99.90;;;;;;5057044;28;20032;-74
2022/10/21 07:03:35;;;;;;;18.50;10.88;;;12.40;99.90;;;;;;5056290;28;20037;-76
2022/10/21 07:06:01;;;;;;;20.02;11.38;;;12.40;99.90;;;;;;5056111;28;20075;-73
2022/10/21 07:08:27;;;;;;;14.77;10.63;;;12.40;99.90;;;;;;5055847;28;20111;-75
2022/10/21 07:10:53;;;;;;;14.60;10.63;;;12.40;99.90;;;;;;5055578;28;20120;-75
2022/10/21 07:13:20;;;;;;;12.75;9.82;;;12.40;99.90;;;;;;5055362;28;20061;-75
2022/10/21 07:15:45;;;;;;;14.05;10.05;;;12.50;99.90;;;;;;5055431;28;20036;-73
2022/10/21 07:18:11;;;;;;;17.98;9.95;;;12.50;99.90;;;;;;5055687;28;20021;-75
2022/10/21 07:20:36;;;;;;;16.90;10.20;;;12.50;99.90;;;;;;5042498;28;20053;-75
2022/10/21 07:23:02;;;;;;;17.65;10.20;;;12.60;99.90;;;;;;5053349;28;20075;-75
2022/10/21 07:25:28;;;;;;;20.00;10.57;;;12.60;99.90;;;;;;5055439;28;20017;-75
2022/10/21 07:27:53;;;;;;;14.77;9.68;;;12.60;99.90;;;;;;5054569;28;20033;-75
2022/10/21 07:30:19;;;;;;;12.85;10.32;;;12.60;99.90;;;;;;5047656;28;20021;-75
2022/10/21 07:32:44;;;;;;;10.98;8.98;;;12.70;99.90;;;;;;5048886;28;20036;-75
2022/10/21 07:35:10;;;;;;;13.15;9.05;;;12.70;99.90;;;;;;5054555;28;20104;-75
2022/10/21 07:37:35;;;;;;;14.45;9.75;;;12.80;99.90;;;;;;5055048;28;20484;-74
2022/10/21 07:40:01;;;;;;;12.43;8.88;;;12.80;99.90;;;;;;5054634;28;20384;-73
2022/10/21 07:42:27;;;;;;;15.07;9.25;;;12.80;99.90;;;;;;5054743;28;20364;-73
2022/10/21 07:44:58;;;;;;;9.25;8.23;;;12.80;99.90;;;;;;5055103;28;20066;-73
2022/10/21 07:47:26;;;;;;;10.10;7.90;;;12.80;99.90;;;;;;5054388;28;20071;-74
2022/10/21 07:49:52;;;;;;;10.38;8.25;;;12.90;99.90;;;;;;5054162;28;20025;-74
2022/10/21 07:52:17;;;;;;;14.23;8.95;;;12.90;99.90;;;;;;5054603;28;20021;-74
2022/10/21 07:54:43;;;;;;;11.57;7.43;;;13.00;99.90;;;;;;5053568;28;20859;-74
2022/10/21 07:57:09;;;;;;;17.30;7.72;;;13.00;99.90;;;;;;5055152;28;20021;-73
2022/10/21 07:59:35;;;;;;;13.32;8.30;;;13.10;99.90;;;;;;5054097;28;20029;-74
2022/10/21 08:02:00;;;;;;;13.10;7.93;;;13.10;99.90;;;;;;5054154;28;20033;-74
2022/10/21 08:04:30;;;;;;;12.98;8.43;;;13.00;99.90;;;;;;5054266;28;20020;-74
2022/10/21 08:06:56;;;;;;;11.25;7.45;;;13.10;99.90;;;;;;5054438;28;20067;-73
2022/10/21 08:09:22;;;;;;;14.48;8.50;;;13.10;99.90;;;;;;5053818;28;20025;-73
2022/10/21 08:11:48;;;;;;;12.48;8.13;;;13.20;99.90;;;;;;5054734;28;20074;-73
2022/10/21 08:14:14;;;;;;;9.73;8.40;;;13.10;99.90;;;;;;5054727;28;20025;-74
2022/10/21 08:16:40;;;;;;;16.95;9.02;;;13.20;99.90;;;;;;5053573;28;20033;-73
2022/10/21 08:19:18;;;;;;;12.15;7.82;;;13.30;99.90;;;;;;5054260;28;20032;-74
2022/10/21 08:21:43;;;;;;;12.77;8.90;;;13.30;99.90;;;;;;5040954;28;20106;-73
2022/10/21 08:24:09;;;;;;;10.73;8.55;;;13.30;99.90;;;;;;5053548;28;20032;-74
2022/10/21 08:26:34;;;;;;;9.57;7.75;;;13.40;99.90;;;;;;5053748;28;20033;-74
2022/10/21 08:29:02;;;;;;;12.80;8.23;;;13.40;99.90;;;;;;5054078;28;20032;-74
2022/10/21 08:31:28;;;;;;;13.05;8.38;;;13.50;99.90;;;;;;5053003;28;20025;-76
2022/10/21 08:33:54;;;;;;;13.55;8.48;;;13.50;99.90;;;;;;5054014;28;20047;-74
2022/10/21 08:36:22;;;;;;;12.88;8.23;;;13.50;99.90;;;;;;5053907;28;20055;-74
2022/10/21 08:38:48;;;;;;;9.00;7.97;;;13.50;99.90;;;;;;5054079;28;20025;-73
2022/10/21 08:41:34;;;;;;;12.32;8.25;;;13.60;99.90;;;;;;5054302;28;20447;-74
2022/10/21 08:44:13;;;;;;;9.10;8.20;;;13.70;99.90;;;;;;5044651;28;20041;-74
2022/10/21 08:46:53;;;;;;;12.90;8.57;;;13.70;99.90;;;;;;5056687;28;20025;-74
2022/10/21 08:49:33;;;;;;;17.77;8.00;;;13.80;99.90;;;;;;5059103;28;20029;-74
2022/10/21 08:52:36;;;;;;;12.43;8.25;;;13.90;99.90;;;;;;5067492;28;20033;-75
2022/10/21 08:55:24;;;;;;;12.25;8.35;;;13.90;99.90;;;;;;5040850;28;20089;-75
2022/10/21 08:57:54;;;;;;;14.10;8.50;;;14.00;99.90;;;;;;5046877;28;20120;-74
2022/10/21 09:00:28;;;;;;;13.35;7.82;;;14.00;99.90;;;;;;5053983;28;20435;-74
2022/10/21 09:03:14;;;;;;;11.13;8.10;;;14.10;99.90;;;;;;5055065;28;20036;-74
2022/10/21 09:05:57;;;;;;;19.08;8.93;;;14.20;99.90;;;;;;5053075;28;20028;-74
2022/10/21 09:08:36;;;;;;;12.32;8.10;;;14.20;99.90;;;;;;5054490;28;20489;-73
2022/10/21 09:11:07;;;;;;;9.32;8.00;;;14.30;99.90;;;;;;5053971;28;20044;-75
2022/10/21 09:13:47;;;;;;;13.70;8.23;;;14.30;99.90;;;;;;5053664;28;20040;-74
2022/10/21 09:16:30;;;;;;;17.25;7.82;;;14.40;99.90;;;;;;5050061;28;20032;-74
2022/10/21 09:19:03;;;;;;;14.82;7.63;;;14.50;99.90;;;;;;5044960;28;20041;-75
2022/10/21 09:21:49;;;;;;;13.35;7.07;;;14.50;99.90;;;;;;5053032;28;20033;-73
2022/10/21 09:24:24;;;;;;;9.15;7.65;;;14.50;99.90;;;;;;5053401;28;20078;-74
2022/10/21 09:26:51;;;;;;;14.15;8.52;;;14.60;99.90;;;;;;5052924;28;20031;-73
2022/10/21 09:29:37;;;;;;;11.82;8.20;;;14.70;99.90;;;;;;5053122;28;20083;-74
2022/10/21 09:32:18;;;;;;;15.23;7.88;;;14.70;99.90;;;;;;5041404;28;20056;-73
2022/10/21 09:34:50;;;;;;;11.77;7.45;;;14.80;99.90;;;;;;5052477;28;20029;-72
2022/10/21 09:37:23;;;;;;;14.63;8.00;;;14.80;99.90;;;;;;5053387;28;20472;-73
2022/10/21 09:39:57;;;;;;;11.43;7.50;;;14.90;99.90;;;;;;5052527;28;20079;-74
2022/10/21 09:42:23;;;;;;;9.70;7.18;;;14.90;99.90;;;;;;5053123;28;20094;-74
2022/10/21 09:44:49;;;;;;;14.95;6.93;;;15.00;99.90;;;;;;5053556;28;20021;-73
2022/10/21 09:47:19;;;;;;;7.18;6.45;;;15.00;99.90;;;;;;5052709;28;20195;-74
2022/10/21 09:49:46;;;;;;;;;;;15.10;99.90;;;;;;5053276;28;20029;-73
2022/10/21 09:52:13;;;;;;;15.90;7.10;;;15.20;99.90;;;;;;5052579;28;19904;-74
2022/10/21 09:54:41;;;;;;;9.68;5.93;;;15.30;99.90;;;;;;5051349;28;20028;-74
2022/10/21 09:57:17;;;;;;;7.00;5.15;;;15.40;99.90;;;;;;5052255;28;20036;-73
2022/10/21 09:59:54;;;;;;;5.80;4.55;;;15.50;99.90;;;;;;5041591;28;20533;-75
2022/10/21 10:02:39;;;;;;;7.03;4.70;;;15.50;99.90;;;;;;5051016;28;20040;-74
2022/10/21 10:05:39;;;;;;;9.20;4.90;;;15.60;99.90;;;;;;5052665;28;20373;-74
2022/10/21 10:08:41;;;;;;;12.27;5.82;;;15.70;99.90;;;;;;5034208;28;20032;-73
2022/10/21 10:11:13;;;;;;;11.02;4.80;;;15.80;99.90;;;;;;5048769;28;20082;-72
2022/10/21 10:13:50;;;;;;;9.43;4.57;;;15.90;99.90;;;;;;5051650;28;20029;-73
2022/10/21 10:16:15;;;;;;;10.50;4.22;;;16.00;99.90;;;;;;5051324;28;20021;-74
2022/10/21 10:18:42;;;;;;;13.85;4.78;;;16.10;99.90;;;;;;5052244;28;20028;-74
2022/10/21 10:21:16;;;;;;;7.43;4.20;;;16.10;99.90;;;;;;5052035;28;20543;-74
2022/10/21 10:23:50;;;;;;;6.90;4.15;;;16.20;99.90;;;;;;5051156;28;20033;-75
2022/10/21 10:26:21;;;;;;;6.88;3.67;;;16.30;99.90;;;;;;5052021;28;20021;-73
2022/10/21 10:28:50;;;;;;;7.65;3.50;;;16.30;99.90;;;;;;5051179;28;20029;-72
2022/10/21 10:31:24;;;;;;;7.63;3.92;;;16.40;99.90;;;;;;5051917;28;20037;-74
2022/10/21 10:34:02;;;;;;;8.05;3.88;;;16.50;99.90;;;;;;5051494;28;20508;-73
2022/10/21 10:36:38;;;;;;;7.47;3.72;;;16.60;99.90;;;;;;5043445;28;20428;-75
2022/10/21 10:39:22;;;;;;;13.77;4.45;;;16.80;99.90;;;;;;5051796;28;20025;-75
2022/10/21 10:41:50;;;;;;;5.78;3.38;;;17.00;99.90;;;;;;5051191;28;20041;-75
2022/10/21 10:44:38;;;;;;;9.82;4.25;;;17.30;99.90;;;;;;5048051;28;20393;-75
2022/10/21 10:47:06;;;;;;;7.55;3.50;;;17.50;99.90;;;;;;5049750;28;20039;-75
2022/10/21 10:49:38;;;;;;;8.63;5.05;;;17.60;99.90;;;;;;5048625;28;20025;-75
2022/10/21 10:52:25;;;;;;;10.00;5.50;;;17.60;99.90;;;;;;5049684;28;20036;-76
2022/10/21 10:55:16;;;;;;;5.15;3.35;;;17.70;99.90;;;;;;5038222;28;20025;-75
2022/10/21 10:57:44;;;;;;;5.50;3.13;;;17.70;99.90;;;;;;5047442;28;20032;-75
2022/10/21 11:00:21;;;;;;;4.82;3.42;;;17.70;99.90;;;;;;5049223;28;20048;-76
2022/10/21 11:03:05;;;;;;;5.18;3.28;;;17.60;99.90;;;;;;5050523;28;20435;-75
2022/10/21 11:05:45;;;;;;;5.60;2.60;;;17.60;99.90;;;;;;5032073;28;20495;-76
2022/10/21 11:08:24;;;;;;;11.07;4.18;;;17.50;99.90;;;;;;5033918;28;20027;-75
2022/10/21 11:10:55;;;;;;;8.38;3.45;;;17.50;99.90;;;;;;5051534;28;20096;-74
2022/10/21 11:13:22;;;;;;;6.38;3.35;;;17.50;99.90;;;;;;5051987;28;20031;-76
2022/10/21 11:16:11;;;;;;;8.77;3.78;;;17.60;99.90;;;;;;5053210;28;20028;-76
2022/10/21 11:18:43;;;;;;;4.25;3.50;;;17.70;99.90;;;;;;5052460;28;20021;-76
2022/10/21 11:21:26;;;;;;;6.70;3.72;;;17.80;99.90;;;;;;5048492;28;20140;-75
2022/10/21 11:24:24;;;;;;;13.02;4.38;;;17.90;99.90;;;;;;5047119;28;20029;-75
2022/10/21 11:27:01;;;;;;;4.15;3.35;;;18.00;99.90;;;;;;5041974;28;20025;-75
2022/10/21 11:29:38;;;;;;;6.10;3.70;;;18.00;99.90;;;;;;5039205;28;20045;-79
2022/10/21 11:32:26;;;;;;;5.40;3.70;;;18.10;99.90;;;;;;5039173;28;20104;-81
2022/10/21 11:35:24;;;;;;;8.18;4.28;;;18.10;99.90;;;;;;5039921;28;20039;-81
2022/10/21 11:38:02;;;;;;;6.60;3.65;;;18.10;99.90;;;;;;5038377;28;20029;-81
2022/10/21 11:41:10;;;;;;;6.93;4.35;;;18.10;99.90;;;;;;5038337;28;20029;-81
2022/10/21 11:43:52;;;;;;;8.00;4.55;;;18.10;99.90;;;;;;5014333;28;20279;-80
2022/10/21 11:46:27;;;;;;;8.10;3.95;;;18.10;99.90;;;;;;5035502;28;20100;-80
2022/10/21 11:48:55;;;;;;;10.68;4.20;;;18.10;99.90;;;;;;5051870;28;20028;-80
2022/10/21 11:51:26;;;;;;;5.05;3.80;;;18.20;99.90;;;;;;5056142;28;20025;-81
2022/10/21 11:53:58;;;;;;;7.10;3.90;;;18.10;99.90;;;;;;5042259;28;20501;-80
2022/10/21 11:56:51;;;;;;;7.03;3.60;;;18.10;99.90;;;;;;5037488;28;20045;-80
2022/10/21 11:59:53;;;;;;;4.80;3.50;;;18.10;99.90;;;;;;5039647;28;20018;-79
2022/10/21 12:02:32;;;;;;;11.25;4.22;;;18.20;99.90;;;;;;5038702;28;20477;-81
2022/10/21 12:05:19;;;;;;;8.77;3.60;;;18.40;99.90;;;;;;5037960;28;20389;-81
2022/10/21 12:08:20;;;;;;;6.75;2.53;;;18.50;99.90;;;;;;5038300;28;20028;-81
2022/10/21 12:10:52;;;;;;;4.85;2.17;;;18.60;99.90;;;;;;5051233;28;20028;-81
2022/10/21 12:13:23;;;;;;;4.93;1.73;;;18.70;99.90;;;;;;5066954;28;20005;-80
2022/10/21 12:16:05;;;;;;;4.25;1.75;;;18.80;99.90;;;;;;5065523;28;20488;-81
2022/10/21 12:18:33;;;;;;;4.57;2.10;;;18.90;99.90;;;;;;5056815;28;20028;-82
2022/10/21 12:20:59;;;;;;;4.88;1.90;;;19.00;99.90;;;;;;5055667;28;20063;-81
2022/10/21 12:23:29;;;;;;;4.10;1.83;;;19.00;99.90;;;;;;5054987;28;20397;-80
2022/10/21 12:26:11;;;;;;;4.75;2.13;;;19.10;99.90;;;;;;5057262;28;20033;-81
2022/10/21 12:28:59;;;;;;;5.20;1.70;;;19.10;99.90;;;;;;5045875;28;20456;-81
2022/10/21 12:31:55;;;;;;;4.75;1.83;;;19.00;99.90;;;;;;5058868;28;20033;-81
2022/10/21 12:34:23;;;;;;;4.40;1.92;;;19.10;99.90;;;;;;5057792;28;20109;-81
2022/10/21 12:36:50;;;;;;;4.07;1.80;;;19.10;99.90;;;;;;5061819;28;20013;-80
2022/10/21 12:39:33;;;;;;;4.00;1.27;;;19.10;99.90;;;;;;5067074;28;20013;-81
2022/10/21 12:42:26;;;;;;;1.90;1.13;;;19.10;99.90;;;;;;5077840;28;20096;-82
2022/10/21 12:44:55;;;;;;;3.25;1.60;;;19.20;99.90;;;;;;5077788;28;20020;-82
2022/10/21 12:47:31;;;;;;;5.95;1.50;;;19.20;99.90;;;;;;5072702;28;20009;-81
2022/10/21 12:50:31;;;;;;;3.53;1.40;;;19.20;99.90;;;;;;5077909;28;20012;-81
2022/10/21 12:53:28;;;;;;;6.60;1.90;;;19.30;99.90;;;;;;5062065;28;20040;-81